ADDS TAF Board (Experimental) INFO Settings
IDs: Format: Expanded Condensed

KPDX - Portland Intl Arpt, OR, US

Issued at 0308 UTC 02 May 2016
Updated at: 0339 UTC 02 May 2016
Time0253Z 02/04Z 02/05Z 02/06Z 02/07Z 02/08Z 02/09Z 02/10Z 02/11Z 02/12Z 02/13Z 02/14Z 02/15Z 02/16Z
Type OBS PRVL PRVL PRVL PRVL PRVL PRVL PRVL PRVL PRVL PRVL PRVL PRVL PRVL
VIS 10 >6 >6 >6 >6 >6 >6 >6 >6 >6 >6 >6 >6 >6
CIG -- -- -- -- -- -- -- -- -- -- -- -- -- --
Cover CLR SKC SKC SKC SKC SKC SKC SKC SKC SKC SKC SKC SKC SKC
FltCat VFR VFR VFR VFR VFR VFR VFR VFR VFR VFR VFR VFR VFR VFR
WX -- -- -- -- -- -- -- -- -- -- -- -- -- --
WDir 90 90 100 100 100 100 100 100 100 100 100 100 100 100
WSpd 10 10 6 6 6 6 6 6 6 6 6 6 6 6
WGst -- -- -- -- -- -- -- -- -- -- -- -- -- --
R03/21
XWnd -7 -7 -5 -5 -5 -5 -5 -5 -5 -5 -5 -5 -5 -5
HWnd 7 7 3 3 3 3 3 3 3 3 3 3 3 3
R10/28
XWnd 5 5 2 2 2 2 2 2 2 2 2 2 2 2
HWnd 9 9 6 6 6 6 6 6 6 6 6 6 6 6

NOTE: TEMPO conditions in [brackets]. Keep in mind TEMPO conditions might be better (lower impact) than prevailing conditions.

Raw TAF
KPDX 020308Z 0203/0224 09010KT P6SM SKC
  FM020500 10006KT P6SM SKC
  FM021700 16004KT P6SM SKC


Raw METAR
KPDX 020253Z 09010KT 10SM CLR 24/04 A2987 RMK AO2 SLP115 T02390044 55011
KPDX 020153Z 08012KT 10SM CLR 26/04 A2987 RMK AO2 SLP115 T02610039
KPDX 020053Z 08013KT 10SM CLR 27/04 A2988 RMK AO2 SLP119 T02720039

METAR Board
Radar Display
Forecast Discussion

TAF Board Legend

Potential Impact
Threat None Slight Moderate High
Visibility (sm) ≥5.1 5.1>X≥3 3>X≥1 <1
Ceiling (100 ft) ≥30.1 30.1>X≥10 10>X≥5 <5
Wind Speed (kt) <10 10≤X<20 20≤X<30 ≥30
Wind Gust (kt) <15 15≤X<25 25≤X<35 ≥35
Weather No Wx Reported VCTS,-TS,-FZRA,SN TS,FZRA +TS,+FZRA,+SN